sensor_id;sensor_type;location;lat;lon;timestamp;temperature;humidity
21678;DHT22;11000;50.360;7.582;2022-09-09T00:02:22;17.80;99.90
21678;DHT22;11000;50.360;7.582;2022-09-09T00:05:32;17.70;99.90
21678;DHT22;11000;50.360;7.582;2022-09-09T00:07:39;17.70;99.90
21678;DHT22;11000;50.360;7.582;2022-09-09T00:10:34;17.70;99.90
21678;DHT22;11000;50.360;7.582;2022-09-09T00:21:11;17.60;99.90
21678;DHT22;11000;50.360;7.582;2022-09-09T00:23:38;17.60;99.90
21678;DHT22;11000;50.360;7.582;2022-09-09T00:28:27;17.50;99.90
21678;DHT22;11000;50.360;7.582;2022-09-09T00:30:50;17.50;99.90
21678;DHT22;11000;50.360;7.582;2022-09-09T00:33:12;17.50;99.90
21678;DHT22;11000;50.360;7.582;2022-09-09T00:35:41;17.40;99.90
21678;DHT22;11000;50.360;7.582;2022-09-09T00:38:19;17.40;99.90
21678;DHT22;11000;50.360;7.582;2022-09-09T00:41:00;17.40;99.90
21678;DHT22;11000;50.360;7.582;2022-09-09T00:43:31;17.30;99.90
21678;DHT22;11000;50.360;7.582;2022-09-09T00:46:05;17.40;99.90
21678;DHT22;11000;50.360;7.582;2022-09-09T00:48:38;17.30;99.90
21678;DHT22;11000;50.360;7.582;2022-09-09T00:51:13;17.30;99.90
21678;DHT22;11000;50.360;7.582;2022-09-09T00:53:58;17.30;99.90
21678;DHT22;11000;50.360;7.582;2022-09-09T00:56:29;17.40;99.90
21678;DHT22;11000;50.360;7.582;2022-09-09T00:59:01;17.40;99.90
21678;DHT22;11000;50.360;7.582;2022-09-09T01:01:24;17.40;99.90
21678;DHT22;11000;50.360;7.582;2022-09-09T01:03:55;17.40;99.90
21678;DHT22;11000;50.360;7.582;2022-09-09T01:06:30;17.40;99.90
21678;DHT22;11000;50.360;7.582;2022-09-09T01:09:11;17.30;99.90
21678;DHT22;11000;50.360;7.582;2022-09-09T01:16:59;17.40;99.90
21678;DHT22;11000;50.360;7.582;2022-09-09T01:19:44;17.40;99.90
21678;DHT22;11000;50.360;7.582;2022-09-09T01:22:26;17.40;99.90
21678;DHT22;11000;50.360;7.582;2022-09-09T01:27:55;17.30;99.90
21678;DHT22;11000;50.360;7.582;2022-09-09T01:30:18;17.40;99.90
21678;DHT22;11000;50.360;7.582;2022-09-09T01:32:44;17.30;99.90
21678;DHT22;11000;50.360;7.582;2022-09-09T01:35:09;17.30;99.90
21678;DHT22;11000;50.360;7.582;2022-09-09T01:37:31;17.30;99.90
21678;DHT22;11000;50.360;7.582;2022-09-09T01:39:51;17.30;99.90
21678;DHT22;11000;50.360;7.582;2022-09-09T01:42:15;17.30;99.90
21678;DHT22;11000;50.360;7.582;2022-09-09T01:44:36;17.30;99.90
21678;DHT22;11000;50.360;7.582;2022-09-09T01:46:58;17.30;99.90
21678;DHT22;11000;50.360;7.582;2022-09-09T01:49:18;17.30;99.90
21678;DHT22;11000;50.360;7.582;2022-09-09T01:51:41;17.20;99.90
21678;DHT22;11000;50.360;7.582;2022-09-09T01:54:03;17.20;99.90
21678;DHT22;11000;50.360;7.582;2022-09-09T02:02:18;17.20;99.90
21678;DHT22;11000;50.360;7.582;2022-09-09T02:04:43;17.20;99.90
21678;DHT22;11000;50.360;7.582;2022-09-09T02:07:11;17.20;99.90
21678;DHT22;11000;50.360;7.582;2022-09-09T02:09:35;17.20;99.90
21678;DHT22;11000;50.360;7.582;2022-09-09T02:12:11;17.30;99.90
21678;DHT22;11000;50.360;7.582;2022-09-09T02:14:38;17.30;99.90
21678;DHT22;11000;50.360;7.582;2022-09-09T02:17:03;17.30;99.90
21678;DHT22;11000;50.360;7.582;2022-09-09T02:19:37;17.30;99.90
21678;DHT22;11000;50.360;7.582;2022-09-09T02:22:00;17.30;99.90
21678;DHT22;11000;50.360;7.582;2022-09-09T02:24:22;17.30;99.90
21678;DHT22;11000;50.360;7.582;2022-09-09T02:26:44;17.20;99.90
21678;DHT22;11000;50.360;7.582;2022-09-09T02:29:12;17.20;99.90
21678;DHT22;11000;50.360;7.582;2022-09-09T02:31:34;17.10;99.90
21678;DHT22;11000;50.360;7.582;2022-09-09T02:33:58;17.10;99.90
21678;DHT22;11000;50.360;7.582;2022-09-09T02:36:23;17.10;99.90
21678;DHT22;11000;50.360;7.582;2022-09-09T02:38:47;17.10;99.90
21678;DHT22;11000;50.360;7.582;2022-09-09T02:41:13;17.10;99.90
21678;DHT22;11000;50.360;7.582;2022-09-09T02:43:34;17.10;99.90
21678;DHT22;11000;50.360;7.582;2022-09-09T02:46:03;17.00;99.90
21678;DHT22;11000;50.360;7.582;2022-09-09T02:48:51;17.00;99.90
21678;DHT22;11000;50.360;7.582;2022-09-09T02:51:44;17.00;99.90
21678;DHT22;11000;50.360;7.582;2022-09-09T02:54:30;16.90;99.90
21678;DHT22;11000;50.360;7.582;2022-09-09T02:56:54;17.00;99.90
21678;DHT22;11000;50.360;7.582;2022-09-09T02:59:16;16.90;99.90
21678;DHT22;11000;50.360;7.582;2022-09-09T03:01:38;17.00;99.90
21678;DHT22;11000;50.360;7.582;2022-09-09T03:04:00;17.00;99.90
21678;DHT22;11000;50.360;7.582;2022-09-09T03:06:20;17.00;99.90
21678;DHT22;11000;50.360;7.582;2022-09-09T03:08:42;17.00;99.90
21678;DHT22;11000;50.360;7.582;2022-09-09T03:11:02;17.00;99.90
21678;DHT22;11000;50.360;7.582;2022-09-09T03:13:23;17.00;99.90
21678;DHT22;11000;50.360;7.582;2022-09-09T03:15:43;16.90;99.90
21678;DHT22;11000;50.360;7.582;2022-09-09T03:18:04;16.90;99.90
21678;DHT22;11000;50.360;7.582;2022-09-09T03:20:25;16.90;99.90
21678;DHT22;11000;50.360;7.582;2022-09-09T03:22:46;17.00;99.90
21678;DHT22;11000;50.360;7.582;2022-09-09T03:25:07;17.00;99.90
21678;DHT22;11000;50.360;7.582;2022-09-09T03:27:28;17.00;99.90
21678;DHT22;11000;50.360;7.582;2022-09-09T03:29:49;17.00;99.90
21678;DHT22;11000;50.360;7.582;2022-09-09T03:32:12;17.00;99.90
21678;DHT22;11000;50.360;7.582;2022-09-09T03:34:32;17.00;99.90
21678;DHT22;11000;50.360;7.582;2022-09-09T03:36:53;17.00;99.90
21678;DHT22;11000;50.360;7.582;2022-09-09T03:39:13;17.00;99.90
21678;DHT22;11000;50.360;7.582;2022-09-09T03:41:34;17.00;99.90
21678;DHT22;11000;50.360;7.582;2022-09-09T03:43:55;17.00;99.90
21678;DHT22;11000;50.360;7.582;2022-09-09T03:46:15;16.90;99.90
21678;DHT22;11000;50.360;7.582;2022-09-09T03:48:36;16.80;99.90
21678;DHT22;11000;50.360;7.582;2022-09-09T03:50:56;16.80;99.90
21678;DHT22;11000;50.360;7.582;2022-09-09T03:53:22;16.80;99.90
21678;DHT22;11000;50.360;7.582;2022-09-09T03:55:47;16.80;99.90
21678;DHT22;11000;50.360;7.582;2022-09-09T03:58:07;16.80;99.90
21678;DHT22;11000;50.360;7.582;2022-09-09T04:00:28;16.70;99.90
21678;DHT22;11000;50.360;7.582;2022-09-09T04:02:50;16.70;99.90
21678;DHT22;11000;50.360;7.582;2022-09-09T04:05:12;16.70;99.90
21678;DHT22;11000;50.360;7.582;2022-09-09T04:07:33;16.60;99.90
21678;DHT22;11000;50.360;7.582;2022-09-09T04:09:54;16.50;99.90
21678;DHT22;11000;50.360;7.582;2022-09-09T04:12:14;16.50;99.90
21678;DHT22;11000;50.360;7.582;2022-09-09T04:14:36;16.50;99.90
21678;DHT22;11000;50.360;7.582;2022-09-09T04:16:57;16.60;99.90
21678;DHT22;11000;50.360;7.582;2022-09-09T04:19:19;16.60;99.90
21678;DHT22;11000;50.360;7.582;2022-09-09T04:21:40;16.70;99.90
21678;DHT22;11000;50.360;7.582;2022-09-09T04:24:01;16.60;99.90
21678;DHT22;11000;50.360;7.582;2022-09-09T04:26:22;16.60;99.90
21678;DHT22;11000;50.360;7.582;2022-09-09T04:28:43;16.50;99.90
21678;DHT22;11000;50.360;7.582;2022-09-09T04:31:09;16.50;99.90
21678;DHT22;11000;50.360;7.582;2022-09-09T04:33:30;16.40;99.90
21678;DHT22;11000;50.360;7.582;2022-09-09T04:35:51;16.40;99.90
21678;DHT22;11000;50.360;7.582;2022-09-09T04:38:15;16.40;99.90
21678;DHT22;11000;50.360;7.582;2022-09-09T04:40:36;16.40;99.90
21678;DHT22;11000;50.360;7.582;2022-09-09T04:43:00;16.40;99.90
21678;DHT22;11000;50.360;7.582;2022-09-09T04:45:20;16.50;99.90
21678;DHT22;11000;50.360;7.582;2022-09-09T04:47:41;16.40;99.90
21678;DHT22;11000;50.360;7.582;2022-09-09T04:50:02;16.50;99.90
21678;DHT22;11000;50.360;7.582;2022-09-09T04:52:23;16.50;99.90
21678;DHT22;11000;50.360;7.582;2022-09-09T04:54:43;16.60;99.90
21678;DHT22;11000;50.360;7.582;2022-09-09T04:57:06;16.60;99.90
21678;DHT22;11000;50.360;7.582;2022-09-09T04:59:27;16.60;99.90
21678;DHT22;11000;50.360;7.582;2022-09-09T05:01:48;16.70;99.90
21678;DHT22;11000;50.360;7.582;2022-09-09T05:04:10;16.70;99.90
21678;DHT22;11000;50.360;7.582;2022-09-09T05:06:31;16.80;99.90
21678;DHT22;11000;50.360;7.582;2022-09-09T05:08:52;16.80;99.90
21678;DHT22;11000;50.360;7.582;2022-09-09T05:11:14;16.80;99.90
21678;DHT22;11000;50.360;7.582;2022-09-09T05:13:36;16.80;99.90
21678;DHT22;11000;50.360;7.582;2022-09-09T05:15:57;16.80;99.90
21678;DHT22;11000;50.360;7.582;2022-09-09T05:18:17;16.80;99.90
21678;DHT22;11000;50.360;7.582;2022-09-09T05:20:38;16.80;99.90
21678;DHT22;11000;50.360;7.582;2022-09-09T05:22:58;16.70;99.90
21678;DHT22;11000;50.360;7.582;2022-09-09T05:25:19;16.70;99.90
21678;DHT22;11000;50.360;7.582;2022-09-09T05:27:39;16.70;99.90
21678;DHT22;11000;50.360;7.582;2022-09-09T05:30:00;16.80;99.90
21678;DHT22;11000;50.360;7.582;2022-09-09T05:32:21;16.80;99.90
21678;DHT22;11000;50.360;7.582;2022-09-09T05:34:41;16.80;99.90
21678;DHT22;11000;50.360;7.582;2022-09-09T05:37:02;16.80;99.90
21678;DHT22;11000;50.360;7.582;2022-09-09T05:39:22;16.90;99.90
21678;DHT22;11000;50.360;7.582;2022-09-09T05:41:43;17.00;99.90
21678;DHT22;11000;50.360;7.582;2022-09-09T05:44:03;17.00;99.90
21678;DHT22;11000;50.360;7.582;2022-09-09T05:46:24;16.90;99.90
21678;DHT22;11000;50.360;7.582;2022-09-09T05:48:47;16.90;99.90
21678;DHT22;11000;50.360;7.582;2022-09-09T05:51:10;16.80;99.90
21678;DHT22;11000;50.360;7.582;2022-09-09T05:53:35;16.80;99.90
21678;DHT22;11000;50.360;7.582;2022-09-09T05:56:06;16.80;99.90
21678;DHT22;11000;50.360;7.582;2022-09-09T05:58:27;16.90;99.90
21678;DHT22;11000;50.360;7.582;2022-09-09T06:00:48;16.80;99.90
21678;DHT22;11000;50.360;7.582;2022-09-09T06:03:11;17.00;99.90
21678;DHT22;11000;50.360;7.582;2022-09-09T06:05:31;17.10;99.90
21678;DHT22;11000;50.360;7.582;2022-09-09T06:07:54;17.10;99.90
21678;DHT22;11000;50.360;7.582;2022-09-09T06:10:15;17.10;99.90
21678;DHT22;11000;50.360;7.582;2022-09-09T06:12:36;17.00;99.90
21678;DHT22;11000;50.360;7.582;2022-09-09T06:14:56;16.90;99.90
21678;DHT22;11000;50.360;7.582;2022-09-09T06:17:17;17.00;99.90
21678;DHT22;11000;50.360;7.582;2022-09-09T06:19:37;17.20;99.90
21678;DHT22;11000;50.360;7.582;2022-09-09T06:21:58;17.40;99.90
21678;DHT22;11000;50.360;7.582;2022-09-09T06:24:19;17.50;99.90
21678;DHT22;11000;50.360;7.582;2022-09-09T06:26:40;17.50;99.90
21678;DHT22;11000;50.360;7.582;2022-09-09T06:29:02;17.70;99.90
21678;DHT22;11000;50.360;7.582;2022-09-09T06:31:26;18.00;99.90
21678;DHT22;11000;50.360;7.582;2022-09-09T06:33:51;18.40;99.90
21678;DHT22;11000;50.360;7.582;2022-09-09T06:36:15;18.40;99.90
21678;DHT22;11000;50.360;7.582;2022-09-09T06:38:35;18.90;99.90
21678;DHT22;11000;50.360;7.582;2022-09-09T06:40:58;18.90;99.90
21678;DHT22;11000;50.360;7.582;2022-09-09T06:43:19;18.50;99.90
21678;DHT22;11000;50.360;7.582;2022-09-09T06:45:40;18.70;99.90
21678;DHT22;11000;50.360;7.582;2022-09-09T06:48:00;19.00;99.90
21678;DHT22;11000;50.360;7.582;2022-09-09T06:50:21;19.00;99.90
21678;DHT22;11000;50.360;7.582;2022-09-09T06:52:41;18.80;99.90
21678;DHT22;11000;50.360;7.582;2022-09-09T06:55:03;18.80;99.90
21678;DHT22;11000;50.360;7.582;2022-09-09T06:57:24;18.90;99.90
21678;DHT22;11000;50.360;7.582;2022-09-09T06:59:44;18.40;99.90
21678;DHT22;11000;50.360;7.582;2022-09-09T07:02:05;18.50;99.90
21678;DHT22;11000;50.360;7.582;2022-09-09T07:04:26;18.70;99.90
21678;DHT22;11000;50.360;7.582;2022-09-09T07:06:46;19.10;99.90
21678;DHT22;11000;50.360;7.582;2022-09-09T07:09:09;19.30;99.90
21678;DHT22;11000;50.360;7.582;2022-09-09T07:11:33;19.50;99.90
21678;DHT22;11000;50.360;7.582;2022-09-09T07:13:54;20.10;99.90
21678;DHT22;11000;50.360;7.582;2022-09-09T07:16:17;20.70;99.90
21678;DHT22;11000;50.360;7.582;2022-09-09T07:18:39;21.00;99.90
21678;DHT22;11000;50.360;7.582;2022-09-09T07:20:59;21.20;99.90
21678;DHT22;11000;50.360;7.582;2022-09-09T07:23:21;21.40;99.90
21678;DHT22;11000;50.360;7.582;2022-09-09T07:25:45;21.50;99.90
21678;DHT22;11000;50.360;7.582;2022-09-09T07:28:06;21.20;99.90
21678;DHT22;11000;50.360;7.582;2022-09-09T07:30:28;21.20;99.90
21678;DHT22;11000;50.360;7.582;2022-09-09T07:32:51;21.20;99.90
21678;DHT22;11000;50.360;7.582;2022-09-09T07:35:12;21.30;99.90
21678;DHT22;11000;50.360;7.582;2022-09-09T07:37:35;21.80;99.90
21678;DHT22;11000;50.360;7.582;2022-09-09T07:39:56;21.70;99.90
21678;DHT22;11000;50.360;7.582;2022-09-09T07:42:16;21.40;99.90
21678;DHT22;11000;50.360;7.582;2022-09-09T07:44:37;21.40;99.90
21678;DHT22;11000;50.360;7.582;2022-09-09T07:47:00;21.80;99.90
21678;DHT22;11000;50.360;7.582;2022-09-09T07:49:20;22.00;99.90
21678;DHT22;11000;50.360;7.582;2022-09-09T07:51:43;21.90;99.90
21678;DHT22;11000;50.360;7.582;2022-09-09T07:54:06;21.80;99.90
21678;DHT22;11000;50.360;7.582;2022-09-09T07:56:30;21.80;99.90
21678;DHT22;11000;50.360;7.582;2022-09-09T07:58:53;21.90;99.90
21678;DHT22;11000;50.360;7.582;2022-09-09T08:01:16;21.80;99.90
21678;DHT22;11000;50.360;7.582;2022-09-09T08:03:38;21.70;99.90
21678;DHT22;11000;50.360;7.582;2022-09-09T08:06:04;21.60;99.90
21678;DHT22;11000;50.360;7.582;2022-09-09T08:08:25;21.70;99.90
21678;DHT22;11000;50.360;7.582;2022-09-09T08:10:45;21.60;99.90
21678;DHT22;11000;50.360;7.582;2022-09-09T08:13:06;21.40;99.90
21678;DHT22;11000;50.360;7.582;2022-09-09T08:15:26;21.20;99.90
21678;DHT22;11000;50.360;7.582;2022-09-09T08:17:47;20.90;99.90
21678;DHT22;11000;50.360;7.582;2022-09-09T08:20:07;20.80;99.90
21678;DHT22;11000;50.360;7.582;2022-09-09T08:22:28;20.60;99.90
21678;DHT22;11000;50.360;7.582;2022-09-09T08:24:49;20.60;99.90
21678;DHT22;11000;50.360;7.582;2022-09-09T08:27:09;20.60;99.90
21678;DHT22;11000;50.360;7.582;2022-09-09T08:29:30;20.60;99.90
21678;DHT22;11000;50.360;7.582;2022-09-09T08:31:52;20.70;99.90
21678;DHT22;11000;50.360;7.582;2022-09-09T08:34:14;20.70;99.90
21678;DHT22;11000;50.360;7.582;2022-09-09T08:36:38;20.60;99.90
21678;DHT22;11000;50.360;7.582;2022-09-09T08:39:00;20.50;99.90
21678;DHT22;11000;50.360;7.582;2022-09-09T08:43:51;20.10;99.90
21678;DHT22;11000;50.360;7.582;2022-09-09T08:46:24;20.20;99.90
21678;DHT22;11000;50.360;7.582;2022-09-09T08:49:00;20.30;99.90
21678;DHT22;11000;50.360;7.582;2022-09-09T08:51:28;20.60;99.90
21678;DHT22;11000;50.360;7.582;2022-09-09T08:53:51;20.70;99.90
21678;DHT22;11000;50.360;7.582;2022-09-09T08:56:38;20.70;99.90
21678;DHT22;11000;50.360;7.582;2022-09-09T08:59:00;20.70;99.90
21678;DHT22;11000;50.360;7.582;2022-09-09T09:07:05;20.60;99.90
21678;DHT22;11000;50.360;7.582;2022-09-09T09:09:44;20.60;99.90
21678;DHT22;11000;50.360;7.582;2022-09-09T09:12:21;20.60;99.90
21678;DHT22;11000;50.360;7.582;2022-09-09T09:14:45;20.40;99.90
21678;DHT22;11000;50.360;7.582;2022-09-09T09:17:11;20.30;99.90
21678;DHT22;11000;50.360;7.582;2022-09-09T09:19:34;20.30;99.90
21678;DHT22;11000;50.360;7.582;2022-09-09T09:22:16;20.30;99.90
21678;DHT22;11000;50.360;7.582;2022-09-09T09:27:33;20.50;99.90
21678;DHT22;11000;50.360;7.582;2022-09-09T09:29:56;20.60;99.90
21678;DHT22;11000;50.360;7.582;2022-09-09T09:32:19;20.70;99.90
21678;DHT22;11000;50.360;7.582;2022-09-09T09:34:41;20.90;99.90
21678;DHT22;11000;50.360;7.582;2022-09-09T09:37:01;20.90;99.90
21678;DHT22;11000;50.360;7.582;2022-09-09T09:39:30;20.90;99.90
21678;DHT22;11000;50.360;7.582;2022-09-09T09:41:52;21.20;99.90
21678;DHT22;11000;50.360;7.582;2022-09-09T09:44:28;21.50;99.90
21678;DHT22;11000;50.360;7.582;2022-09-09T09:46:49;21.50;99.90
21678;DHT22;11000;50.360;7.582;2022-09-09T09:49:10;21.50;99.90
21678;DHT22;11000;50.360;7.582;2022-09-09T09:51:32;21.50;99.90
21678;DHT22;11000;50.360;7.582;2022-09-09T09:53:53;21.60;99.90
21678;DHT22;11000;50.360;7.582;2022-09-09T09:56:14;21.70;99.90
21678;DHT22;11000;50.360;7.582;2022-09-09T09:58:51;21.60;99.90
21678;DHT22;11000;50.360;7.582;2022-09-09T10:03:53;21.70;99.90
21678;DHT22;11000;50.360;7.582;2022-09-09T10:06:14;21.80;99.90
21678;DHT22;11000;50.360;7.582;2022-09-09T10:08:44;21.90;99.90
21678;DHT22;11000;50.360;7.582;2022-09-09T10:11:23;22.00;99.90
21678;DHT22;11000;50.360;7.582;2022-09-09T10:14:05;22.10;99.90
21678;DHT22;11000;50.360;7.582;2022-09-09T10:16:45;22.20;99.90
21678;DHT22;11000;50.360;7.582;2022-09-09T10:19:13;22.30;99.90
21678;DHT22;11000;50.360;7.582;2022-09-09T10:22:03;22.40;99.90
21678;DHT22;11000;50.360;7.582;2022-09-09T10:30:24;22.60;99.90
21678;DHT22;11000;50.360;7.582;2022-09-09T10:35:46;22.60;99.90
21678;DHT22;11000;50.360;7.582;2022-09-09T10:38:13;22.70;99.90
21678;DHT22;11000;50.360;7.582;2022-09-09T10:40:38;22.50;99.90
21678;DHT22;11000;50.360;7.582;2022-09-09T10:46:23;22.20;99.90
21678;DHT22;11000;50.360;7.582;2022-09-09T10:49:06;22.20;99.90
21678;DHT22;11000;50.360;7.582;2022-09-09T10:51:51;22.30;99.90
21678;DHT22;11000;50.360;7.582;2022-09-09T10:54:32;22.50;99.90
21678;DHT22;11000;50.360;7.582;2022-09-09T10:57:00;22.60;99.90
21678;DHT22;11000;50.360;7.582;2022-09-09T10:59:41;22.70;99.90
21678;DHT22;11000;50.360;7.582;2022-09-09T11:04:34;23.00;99.90
21678;DHT22;11000;50.360;7.582;2022-09-09T11:06:55;23.20;99.90
21678;DHT22;11000;50.360;7.582;2022-09-09T11:09:19;23.30;99.90
21678;DHT22;11000;50.360;7.582;2022-09-09T11:11:49;23.50;99.90
21678;DHT22;11000;50.360;7.582;2022-09-09T11:14:37;23.70;99.90
21678;DHT22;11000;50.360;7.582;2022-09-09T11:17:06;23.60;99.90
21678;DHT22;11000;50.360;7.582;2022-09-09T11:19:34;23.40;99.90
21678;DHT22;11000;50.360;7.582;2022-09-09T11:21:57;23.30;99.90
21678;DHT22;11000;50.360;7.582;2022-09-09T11:24:40;23.10;99.90
21678;DHT22;11000;50.360;7.582;2022-09-09T11:27:15;23.30;99.90
21678;DHT22;11000;50.360;7.582;2022-09-09T11:40:26;24.10;99.90
21678;DHT22;11000;50.360;7.582;2022-09-09T11:42:48;23.90;99.90
21678;DHT22;11000;50.360;7.582;2022-09-09T11:45:30;23.80;99.90
21678;DHT22;11000;50.360;7.582;2022-09-09T11:47:53;24.00;99.90
21678;DHT22;11000;50.360;7.582;2022-09-09T11:52:42;24.20;99.90
21678;DHT22;11000;50.360;7.582;2022-09-09T11:55:31;24.20;99.90
21678;DHT22;11000;50.360;7.582;2022-09-09T11:58:16;24.40;99.90
21678;DHT22;11000;50.360;7.582;2022-09-09T12:00:42;24.70;99.90
21678;DHT22;11000;50.360;7.582;2022-09-09T12:03:05;24.70;99.90
21678;DHT22;11000;50.360;7.582;2022-09-09T12:05:39;24.60;99.90
21678;DHT22;11000;50.360;7.582;2022-09-09T12:08:02;24.50;99.90
21678;DHT22;11000;50.360;7.582;2022-09-09T12:10:29;24.60;99.90
21678;DHT22;11000;50.360;7.582;2022-09-09T12:12:51;24.90;99.90
21678;DHT22;11000;50.360;7.582;2022-09-09T12:15:17;25.10;99.90
21678;DHT22;11000;50.360;7.582;2022-09-09T12:17:51;24.90;99.90
21678;DHT22;11000;50.360;7.582;2022-09-09T12:20:16;25.00;99.90
21678;DHT22;11000;50.360;7.582;2022-09-09T12:23:29;25.20;99.90
21678;DHT22;11000;50.360;7.582;2022-09-09T12:28:24;25.70;95.20
21678;DHT22;11000;50.360;7.582;2022-09-09T12:31:08;25.20;96.70
21678;DHT22;11000;50.360;7.582;2022-09-09T12:33:35;25.30;97.20
21678;DHT22;11000;50.360;7.582;2022-09-09T12:35:58;25.00;97.90
21678;DHT22;11000;50.360;7.582;2022-09-09T12:38:36;25.40;98.50
21678;DHT22;11000;50.360;7.582;2022-09-09T12:40:58;25.80;94.40
21678;DHT22;11000;50.360;7.582;2022-09-09T12:43:21;25.70;92.00
21678;DHT22;11000;50.360;7.582;2022-09-09T12:45:42;25.20;94.40
21678;DHT22;11000;50.360;7.582;2022-09-09T12:48:06;24.90;97.30
21678;DHT22;11000;50.360;7.582;2022-09-09T12:50:34;24.80;99.90
21678;DHT22;11000;50.360;7.582;2022-09-09T12:52:58;25.20;97.50
21678;DHT22;11000;50.360;7.582;2022-09-09T12:55:25;25.70;94.40
21678;DHT22;11000;50.360;7.582;2022-09-09T12:57:49;25.70;93.50
21678;DHT22;11000;50.360;7.582;2022-09-09T13:00:18;26.00;93.00
21678;DHT22;11000;50.360;7.582;2022-09-09T13:02:52;26.10;88.90
21678;DHT22;11000;50.360;7.582;2022-09-09T13:05:16;26.10;90.30
21678;DHT22;11000;50.360;7.582;2022-09-09T13:07:37;26.30;88.50
21678;DHT22;11000;50.360;7.582;2022-09-09T13:09:57;26.40;85.70
21678;DHT22;11000;50.360;7.582;2022-09-09T13:12:20;26.00;89.00
21678;DHT22;11000;50.360;7.582;2022-09-09T13:14:46;25.90;90.30
21678;DHT22;11000;50.360;7.582;2022-09-09T13:17:21;25.90;91.70
21678;DHT22;11000;50.360;7.582;2022-09-09T13:19:44;26.40;86.20
21678;DHT22;11000;50.360;7.582;2022-09-09T13:22:35;26.50;85.20
21678;DHT22;11000;50.360;7.582;2022-09-09T13:27:34;26.50;83.40
21678;DHT22;11000;50.360;7.582;2022-09-09T13:29:55;25.80;86.00
21678;DHT22;11000;50.360;7.582;2022-09-09T13:32:17;25.90;86.70
21678;DHT22;11000;50.360;7.582;2022-09-09T13:34:38;25.70;90.20
21678;DHT22;11000;50.360;7.582;2022-09-09T13:37:06;25.50;91.90
21678;DHT22;11000;50.360;7.582;2022-09-09T13:39:36;25.40;92.90
21678;DHT22;11000;50.360;7.582;2022-09-09T13:41:57;25.90;90.60
21678;DHT22;11000;50.360;7.582;2022-09-09T13:44:22;26.20;90.50
21678;DHT22;11000;50.360;7.582;2022-09-09T13:46:44;26.00;90.10
21678;DHT22;11000;50.360;7.582;2022-09-09T13:51:37;25.50;93.00
21678;DHT22;11000;50.360;7.582;2022-09-09T13:53:57;24.80;95.80
21678;DHT22;11000;50.360;7.582;2022-09-09T13:56:19;24.60;98.60
21678;DHT22;11000;50.360;7.582;2022-09-09T13:58:39;24.40;99.00
21678;DHT22;11000;50.360;7.582;2022-09-09T14:01:00;24.30;99.90
21678;DHT22;11000;50.360;7.582;2022-09-09T14:03:21;24.20;99.90
21678;DHT22;11000;50.360;7.582;2022-09-09T14:05:42;24.40;99.90
21678;DHT22;11000;50.360;7.582;2022-09-09T14:08:04;24.70;99.90
21678;DHT22;11000;50.360;7.582;2022-09-09T14:10:25;25.00;99.90
21678;DHT22;11000;50.360;7.582;2022-09-09T14:12:46;25.10;98.00
21678;DHT22;11000;50.360;7.582;2022-09-09T14:15:09;24.80;99.90
21678;DHT22;11000;50.360;7.582;2022-09-09T14:17:30;24.60;99.90
21678;DHT22;11000;50.360;7.582;2022-09-09T14:19:51;24.90;97.70
21678;DHT22;11000;50.360;7.582;2022-09-09T14:22:12;24.60;99.90
21678;DHT22;11000;50.360;7.582;2022-09-09T14:24:32;23.80;99.90
21678;DHT22;11000;50.360;7.582;2022-09-09T14:26:53;23.50;99.90
21678;DHT22;11000;50.360;7.582;2022-09-09T14:29:14;23.10;99.90
21678;DHT22;11000;50.360;7.582;2022-09-09T14:31:35;22.90;99.90
21678;DHT22;11000;50.360;7.582;2022-09-09T14:33:55;22.80;99.90
21678;DHT22;11000;50.360;7.582;2022-09-09T14:36:16;22.50;99.90
21678;DHT22;11000;50.360;7.582;2022-09-09T14:38:37;22.30;99.90
21678;DHT22;11000;50.360;7.582;2022-09-09T14:41:02;22.10;99.90
21678;DHT22;11000;50.360;7.582;2022-09-09T14:43:23;22.00;99.90
21678;DHT22;11000;50.360;7.582;2022-09-09T14:45:44;21.50;99.90
21678;DHT22;11000;50.360;7.582;2022-09-09T14:48:05;20.70;99.90
21678;DHT22;11000;50.360;7.582;2022-09-09T14:50:25;19.80;99.90
21678;DHT22;11000;50.360;7.582;2022-09-09T14:52:46;19.10;99.90
21678;DHT22;11000;50.360;7.582;2022-09-09T14:55:07;18.60;99.90
21678;DHT22;11000;50.360;7.582;2022-09-09T14:57:28;18.30;99.90
21678;DHT22;11000;50.360;7.582;2022-09-09T14:59:48;18.00;99.90
21678;DHT22;11000;50.360;7.582;2022-09-09T15:12:29;16.90;99.90
21678;DHT22;11000;50.360;7.582;2022-09-09T15:14:50;16.70;99.90
21678;DHT22;11000;50.360;7.582;2022-09-09T15:17:11;16.70;99.90
21678;DHT22;11000;50.360;7.582;2022-09-09T15:19:32;16.70;99.90
21678;DHT22;11000;50.360;7.582;2022-09-09T15:21:53;16.80;99.90
21678;DHT22;11000;50.360;7.582;2022-09-09T15:24:14;17.10;99.90
21678;DHT22;11000;50.360;7.582;2022-09-09T15:26:37;17.20;99.90
21678;DHT22;11000;50.360;7.582;2022-09-09T15:28:58;17.10;99.90
21678;DHT22;11000;50.360;7.582;2022-09-09T15:31:24;17.00;99.90
21678;DHT22;11000;50.360;7.582;2022-09-09T15:33:53;17.00;99.90
21678;DHT22;11000;50.360;7.582;2022-09-09T15:36:20;17.20;99.90
21678;DHT22;11000;50.360;7.582;2022-09-09T15:38:41;17.20;99.90
21678;DHT22;11000;50.360;7.582;2022-09-09T15:41:02;17.30;99.90
21678;DHT22;11000;50.360;7.582;2022-09-09T15:43:22;17.40;99.90
21678;DHT22;11000;50.360;7.582;2022-09-09T15:45:43;17.30;99.90
21678;DHT22;11000;50.360;7.582;2022-09-09T15:48:06;17.40;99.90
21678;DHT22;11000;50.360;7.582;2022-09-09T15:50:26;17.60;99.90
21678;DHT22;11000;50.360;7.582;2022-09-09T15:52:47;17.70;99.90
21678;DHT22;11000;50.360;7.582;2022-09-09T15:55:07;17.80;99.90
21678;DHT22;11000;50.360;7.582;2022-09-09T15:57:28;17.80;99.90
21678;DHT22;11000;50.360;7.582;2022-09-09T15:59:49;17.90;99.90
21678;DHT22;11000;50.360;7.582;2022-09-09T16:02:09;18.10;99.90
21678;DHT22;11000;50.360;7.582;2022-09-09T16:04:30;18.20;99.90
21678;DHT22;11000;50.360;7.582;2022-09-09T16:07:00;18.20;99.90
21678;DHT22;11000;50.360;7.582;2022-09-09T16:09:21;18.20;99.90
21678;DHT22;11000;50.360;7.582;2022-09-09T16:11:42;18.20;99.90
21678;DHT22;11000;50.360;7.582;2022-09-09T16:14:03;18.20;99.90
21678;DHT22;11000;50.360;7.582;2022-09-09T16:16:26;18.30;99.90
21678;DHT22;11000;50.360;7.582;2022-09-09T16:18:50;18.20;99.90
21678;DHT22;11000;50.360;7.582;2022-09-09T16:21:17;18.30;99.90
21678;DHT22;11000;50.360;7.582;2022-09-09T16:23:38;18.30;99.90
21678;DHT22;11000;50.360;7.582;2022-09-09T16:25:59;18.30;99.90
21678;DHT22;11000;50.360;7.582;2022-09-09T16:28:20;18.30;99.90
21678;DHT22;11000;50.360;7.582;2022-09-09T16:30:40;18.30;99.90
21678;DHT22;11000;50.360;7.582;2022-09-09T16:33:01;18.20;99.90
21678;DHT22;11000;50.360;7.582;2022-09-09T16:35:21;18.10;99.90
21678;DHT22;11000;50.360;7.582;2022-09-09T16:37:42;18.10;99.90
21678;DHT22;11000;50.360;7.582;2022-09-09T16:40:03;18.10;99.90